Terminal Aerodrome Forecast
Issued by NWS Shreveport, LA

Home | Current Version | Previous Version | Text Only | Print | Product List | Glossary On
Versions: 1 2 3 4 5 6 7 8 9 10 11 12 13 14 15 16
025
FTUS44 KSHV 242320
TAFLFK
TAF
KLFK 242320Z 2500/2524 00000KT P6SM SCT250
     FM251400 18004KT P6SM BKN250
     FM251800 22006KT P6SM SCT040 BKN250
     FM252100 27006KT P6SM BKN050 BKN250=

USA.gov is the U.S. government's official web portal to all federal, state and local government web resources and services.